sensor_id;sensor_type;location;lat;lon;timestamp;P1;durP1;ratioP1;P2;durP2;ratioP2
568;SDS011;269;48.884;9.192;2022-11-11T00:01:07;10.15;;;9.15;;
568;SDS011;269;48.884;9.192;2022-11-11T00:03:36;12.77;;;9.93;;
568;SDS011;269;48.884;9.192;2022-11-11T00:06:04;9.85;;;8.95;;
568;SDS011;269;48.884;9.192;2022-11-11T00:08:35;11.13;;;10.13;;
568;SDS011;269;48.884;9.192;2022-11-11T00:11:06;12.90;;;10.80;;
568;SDS011;269;48.884;9.192;2022-11-11T00:13:34;14.27;;;12.85;;
568;SDS011;269;48.884;9.192;2022-11-11T00:16:04;13.13;;;11.88;;
568;SDS011;269;48.884;9.192;2022-11-11T00:18:32;14.55;;;12.18;;
568;SDS011;269;48.884;9.192;2022-11-11T00:21:17;19.60;;;12.63;;
568;SDS011;269;48.884;9.192;2022-11-11T00:24:04;12.60;;;11.40;;
568;SDS011;269;48.884;9.192;2022-11-11T00:27:00;12.80;;;11.60;;
568;SDS011;269;48.884;9.192;2022-11-11T00:29:29;14.27;;;12.30;;
568;SDS011;269;48.884;9.192;2022-11-11T00:31:56;13.88;;;12.43;;
568;SDS011;269;48.884;9.192;2022-11-11T00:34:42;14.00;;;11.15;;
568;SDS011;269;48.884;9.192;2022-11-11T00:37:29;11.88;;;10.68;;
568;SDS011;269;48.884;9.192;2022-11-11T00:39:57;14.63;;;12.32;;
568;SDS011;269;48.884;9.192;2022-11-11T00:42:25;12.27;;;11.23;;
568;SDS011;269;48.884;9.192;2022-11-11T00:44:53;11.73;;;10.63;;
568;SDS011;269;48.884;9.192;2022-11-11T00:47:21;13.63;;;12.32;;
568;SDS011;269;48.884;9.192;2022-11-11T00:50:08;11.85;;;10.85;;
568;SDS011;269;48.884;9.192;2022-11-11T00:52:55;17.15;;;12.60;;
568;SDS011;269;48.884;9.192;2022-11-11T00:55:22;14.18;;;12.85;;
568;SDS011;269;48.884;9.192;2022-11-11T00:57:50;14.98;;;13.57;;
568;SDS011;269;48.884;9.192;2022-11-11T01:00:18;16.00;;;13.35;;
568;SDS011;269;48.884;9.192;2022-11-11T01:02:45;15.15;;;13.75;;
568;SDS011;269;48.884;9.192;2022-11-11T01:05:12;15.68;;;13.70;;
568;SDS011;269;48.884;9.192;2022-11-11T01:07:40;14.18;;;12.60;;
568;SDS011;269;48.884;9.192;2022-11-11T01:10:08;16.27;;;14.38;;
568;SDS011;269;48.884;9.192;2022-11-11T01:12:36;14.55;;;13.10;;
568;SDS011;269;48.884;9.192;2022-11-11T01:15:06;15.93;;;14.40;;
568;SDS011;269;48.884;9.192;2022-11-11T01:17:34;15.60;;;14.20;;
568;SDS011;269;48.884;9.192;2022-11-11T01:20:01;15.43;;;13.77;;
568;SDS011;269;48.884;9.192;2022-11-11T01:22:28;15.80;;;14.30;;
568;SDS011;269;48.884;9.192;2022-11-11T01:24:55;17.05;;;15.02;;
568;SDS011;269;48.884;9.192;2022-11-11T01:27:22;15.75;;;14.20;;
568;SDS011;269;48.884;9.192;2022-11-11T01:29:50;17.23;;;15.50;;
568;SDS011;269;48.884;9.192;2022-11-11T01:32:19;18.40;;;14.63;;
568;SDS011;269;48.884;9.192;2022-11-11T01:34:46;15.77;;;13.73;;
568;SDS011;269;48.884;9.192;2022-11-11T01:37:15;16.60;;;14.90;;
568;SDS011;269;48.884;9.192;2022-11-11T01:39:43;16.73;;;15.02;;
568;SDS011;269;48.884;9.192;2022-11-11T01:42:10;19.15;;;14.30;;
568;SDS011;269;48.884;9.192;2022-11-11T01:44:39;16.48;;;14.77;;
568;SDS011;269;48.884;9.192;2022-11-11T01:47:12;15.93;;;14.32;;
568;SDS011;269;48.884;9.192;2022-11-11T01:49:45;17.20;;;15.07;;
568;SDS011;269;48.884;9.192;2022-11-11T01:52:18;15.95;;;14.43;;
568;SDS011;269;48.884;9.192;2022-11-11T01:54:50;16.08;;;14.48;;
568;SDS011;269;48.884;9.192;2022-11-11T01:57:21;15.27;;;13.68;;
568;SDS011;269;48.884;9.192;2022-11-11T01:59:54;17.70;;;15.85;;
568;SDS011;269;48.884;9.192;2022-11-11T02:02:28;14.95;;;13.45;;
568;SDS011;269;48.884;9.192;2022-11-11T02:05:02;16.08;;;14.43;;
568;SDS011;269;48.884;9.192;2022-11-11T02:07:48;15.77;;;14.00;;
568;SDS011;269;48.884;9.192;2022-11-11T02:10:16;16.35;;;14.80;;
568;SDS011;269;48.884;9.192;2022-11-11T02:12:47;16.38;;;14.70;;
568;SDS011;269;48.884;9.192;2022-11-11T02:15:32;15.07;;;13.57;;
568;SDS011;269;48.884;9.192;2022-11-11T02:17:59;15.98;;;14.35;;
568;SDS011;269;48.884;9.192;2022-11-11T02:20:29;15.20;;;13.73;;
568;SDS011;269;48.884;9.192;2022-11-11T02:23:03;15.70;;;14.10;;
568;SDS011;269;48.884;9.192;2022-11-11T02:25:35;22.63;;;16.63;;
568;SDS011;269;48.884;9.192;2022-11-11T02:28:05;17.08;;;15.27;;
568;SDS011;269;48.884;9.192;2022-11-11T02:30:33;16.83;;;15.18;;
568;SDS011;269;48.884;9.192;2022-11-11T02:33:00;16.75;;;15.15;;
568;SDS011;269;48.884;9.192;2022-11-11T02:35:30;14.38;;;12.55;;
568;SDS011;269;48.884;9.192;2022-11-11T02:37:58;18.17;;;14.98;;
568;SDS011;269;48.884;9.192;2022-11-11T02:40:32;16.63;;;14.93;;
568;SDS011;269;48.884;9.192;2022-11-11T02:43:04;15.90;;;14.27;;
568;SDS011;269;48.884;9.192;2022-11-11T02:45:33;16.58;;;14.73;;
568;SDS011;269;48.884;9.192;2022-11-11T02:48:00;15.90;;;14.20;;
568;SDS011;269;48.884;9.192;2022-11-11T02:50:27;17.02;;;15.45;;
568;SDS011;269;48.884;9.192;2022-11-11T02:52:55;16.58;;;14.88;;
568;SDS011;269;48.884;9.192;2022-11-11T02:55:22;19.02;;;16.15;;
568;SDS011;269;48.884;9.192;2022-11-11T02:57:49;17.38;;;15.57;;
568;SDS011;269;48.884;9.192;2022-11-11T03:00:18;16.23;;;14.63;;
568;SDS011;269;48.884;9.192;2022-11-11T03:02:45;15.82;;;14.32;;
568;SDS011;269;48.884;9.192;2022-11-11T03:05:13;16.02;;;14.38;;
568;SDS011;269;48.884;9.192;2022-11-11T03:07:40;17.40;;;15.70;;
568;SDS011;269;48.884;9.192;2022-11-11T03:10:08;17.95;;;16.20;;
568;SDS011;269;48.884;9.192;2022-11-11T03:12:35;16.65;;;15.05;;
568;SDS011;269;48.884;9.192;2022-11-11T03:15:03;17.08;;;15.35;;
568;SDS011;269;48.884;9.192;2022-11-11T03:17:33;14.77;;;13.43;;
568;SDS011;269;48.884;9.192;2022-11-11T03:20:05;16.05;;;14.55;;
568;SDS011;269;48.884;9.192;2022-11-11T03:22:58;16.73;;;15.18;;
568;SDS011;269;48.884;9.192;2022-11-11T03:25:26;14.60;;;13.30;;
568;SDS011;269;48.884;9.192;2022-11-11T03:28:06;17.48;;;15.65;;
568;SDS011;269;48.884;9.192;2022-11-11T03:30:35;15.50;;;14.10;;
568;SDS011;269;48.884;9.192;2022-11-11T03:33:05;16.17;;;14.60;;
568;SDS011;269;48.884;9.192;2022-11-11T03:35:32;18.05;;;14.95;;
568;SDS011;269;48.884;9.192;2022-11-11T03:38:01;16.10;;;14.40;;
568;SDS011;269;48.884;9.192;2022-11-11T03:40:41;16.52;;;15.00;;
568;SDS011;269;48.884;9.192;2022-11-11T03:43:09;15.63;;;14.02;;
568;SDS011;269;48.884;9.192;2022-11-11T03:45:36;17.65;;;15.90;;
568;SDS011;269;48.884;9.192;2022-11-11T03:48:06;23.88;;;17.73;;
568;SDS011;269;48.884;9.192;2022-11-11T03:50:34;17.75;;;15.88;;
568;SDS011;269;48.884;9.192;2022-11-11T03:53:01;17.25;;;15.65;;
568;SDS011;269;48.884;9.192;2022-11-11T03:55:28;16.25;;;14.70;;
568;SDS011;269;48.884;9.192;2022-11-11T03:57:56;15.93;;;14.05;;
568;SDS011;269;48.884;9.192;2022-11-11T04:00:24;17.83;;;15.02;;
568;SDS011;269;48.884;9.192;2022-11-11T04:03:00;16.73;;;15.05;;
568;SDS011;269;48.884;9.192;2022-11-11T04:05:48;19.42;;;17.55;;
568;SDS011;269;48.884;9.192;2022-11-11T04:08:33;17.98;;;15.80;;
568;SDS011;269;48.884;9.192;2022-11-11T04:11:20;17.35;;;15.48;;
568;SDS011;269;48.884;9.192;2022-11-11T04:13:50;18.15;;;16.25;;
568;SDS011;269;48.884;9.192;2022-11-11T04:16:36;18.85;;;16.83;;
568;SDS011;269;48.884;9.192;2022-11-11T04:19:03;20.85;;;18.65;;
568;SDS011;269;48.884;9.192;2022-11-11T04:21:49;19.40;;;17.48;;
568;SDS011;269;48.884;9.192;2022-11-11T04:24:18;18.30;;;16.35;;
568;SDS011;269;48.884;9.192;2022-11-11T04:27:05;17.92;;;15.77;;
568;SDS011;269;48.884;9.192;2022-11-11T04:29:33;16.92;;;15.32;;
568;SDS011;269;48.884;9.192;2022-11-11T04:32:00;18.27;;;16.25;;
568;SDS011;269;48.884;9.192;2022-11-11T04:34:46;15.13;;;13.85;;
568;SDS011;269;48.884;9.192;2022-11-11T04:37:16;17.42;;;15.68;;
568;SDS011;269;48.884;9.192;2022-11-11T04:39:44;17.00;;;15.35;;
568;SDS011;269;48.884;9.192;2022-11-11T04:42:29;20.13;;;16.02;;
568;SDS011;269;48.884;9.192;2022-11-11T04:44:57;17.20;;;15.50;;
568;SDS011;269;48.884;9.192;2022-11-11T04:47:51;18.00;;;16.13;;
568;SDS011;269;48.884;9.192;2022-11-11T04:50:19;21.90;;;19.45;;
568;SDS011;269;48.884;9.192;2022-11-11T04:52:48;19.40;;;17.35;;
568;SDS011;269;48.884;9.192;2022-11-11T04:55:16;19.02;;;16.58;;
568;SDS011;269;48.884;9.192;2022-11-11T04:58:01;21.10;;;17.90;;
568;SDS011;269;48.884;9.192;2022-11-11T05:00:29;18.60;;;16.55;;
568;SDS011;269;48.884;9.192;2022-11-11T05:02:56;17.75;;;15.93;;
568;SDS011;269;48.884;9.192;2022-11-11T05:05:41;17.05;;;15.27;;
568;SDS011;269;48.884;9.192;2022-11-11T05:08:28;18.25;;;16.10;;
568;SDS011;269;48.884;9.192;2022-11-11T05:11:14;17.25;;;15.43;;
568;SDS011;269;48.884;9.192;2022-11-11T05:13:42;15.85;;;14.35;;
568;SDS011;269;48.884;9.192;2022-11-11T05:16:28;16.52;;;14.63;;
568;SDS011;269;48.884;9.192;2022-11-11T05:19:16;16.20;;;14.52;;
568;SDS011;269;48.884;9.192;2022-11-11T05:22:04;17.95;;;16.02;;
568;SDS011;269;48.884;9.192;2022-11-11T05:24:36;21.98;;;15.82;;
568;SDS011;269;48.884;9.192;2022-11-11T05:27:22;17.20;;;15.40;;
568;SDS011;269;48.884;9.192;2022-11-11T05:29:49;17.90;;;16.10;;
568;SDS011;269;48.884;9.192;2022-11-11T05:32:16;16.05;;;14.55;;
568;SDS011;269;48.884;9.192;2022-11-11T05:34:44;16.50;;;14.80;;
568;SDS011;269;48.884;9.192;2022-11-11T05:37:13;17.35;;;15.40;;
568;SDS011;269;48.884;9.192;2022-11-11T05:39:41;16.80;;;15.07;;
568;SDS011;269;48.884;9.192;2022-11-11T05:42:09;17.13;;;15.05;;
568;SDS011;269;48.884;9.192;2022-11-11T05:44:38;15.77;;;14.07;;
568;SDS011;269;48.884;9.192;2022-11-11T05:47:05;18.95;;;16.02;;
568;SDS011;269;48.884;9.192;2022-11-11T05:49:33;14.15;;;12.95;;
568;SDS011;269;48.884;9.192;2022-11-11T05:52:00;15.15;;;13.70;;
568;SDS011;269;48.884;9.192;2022-11-11T05:54:28;15.80;;;13.48;;
568;SDS011;269;48.884;9.192;2022-11-11T05:56:58;14.18;;;12.82;;
568;SDS011;269;48.884;9.192;2022-11-11T05:59:25;13.40;;;12.10;;
568;SDS011;269;48.884;9.192;2022-11-11T06:01:52;13.70;;;12.48;;
568;SDS011;269;48.884;9.192;2022-11-11T06:04:22;14.00;;;12.70;;
568;SDS011;269;48.884;9.192;2022-11-11T06:06:50;15.27;;;13.77;;
568;SDS011;269;48.884;9.192;2022-11-11T06:09:17;13.55;;;12.02;;
568;SDS011;269;48.884;9.192;2022-11-11T06:11:48;13.52;;;12.15;;
568;SDS011;269;48.884;9.192;2022-11-11T06:14:17;14.43;;;13.10;;
568;SDS011;269;48.884;9.192;2022-11-11T06:16:47;14.50;;;13.10;;
568;SDS011;269;48.884;9.192;2022-11-11T06:19:14;13.13;;;11.93;;
568;SDS011;269;48.884;9.192;2022-11-11T06:21:41;14.05;;;12.63;;
568;SDS011;269;48.884;9.192;2022-11-11T06:24:25;12.63;;;11.30;;
568;SDS011;269;48.884;9.192;2022-11-11T06:26:52;12.25;;;11.05;;
568;SDS011;269;48.884;9.192;2022-11-11T06:29:20;12.15;;;10.88;;
568;SDS011;269;48.884;9.192;2022-11-11T06:31:47;14.38;;;10.90;;
568;SDS011;269;48.884;9.192;2022-11-11T06:34:14;13.18;;;11.65;;
568;SDS011;269;48.884;9.192;2022-11-11T06:36:41;11.60;;;10.45;;
568;SDS011;269;48.884;9.192;2022-11-11T06:39:09;12.30;;;11.20;;
568;SDS011;269;48.884;9.192;2022-11-11T06:41:36;11.82;;;10.63;;
568;SDS011;269;48.884;9.192;2022-11-11T06:44:03;11.20;;;10.15;;
568;SDS011;269;48.884;9.192;2022-11-11T06:46:32;11.23;;;10.23;;
568;SDS011;269;48.884;9.192;2022-11-11T06:48:59;12.52;;;11.35;;
568;SDS011;269;48.884;9.192;2022-11-11T06:51:28;13.50;;;12.18;;
568;SDS011;269;48.884;9.192;2022-11-11T06:53:55;11.82;;;10.68;;
568;SDS011;269;48.884;9.192;2022-11-11T06:56:22;12.32;;;11.13;;
568;SDS011;269;48.884;9.192;2022-11-11T06:58:49;13.02;;;11.82;;
568;SDS011;269;48.884;9.192;2022-11-11T07:01:17;13.13;;;11.82;;
568;SDS011;269;48.884;9.192;2022-11-11T07:03:46;12.30;;;11.18;;
568;SDS011;269;48.884;9.192;2022-11-11T07:06:13;12.63;;;10.90;;
568;SDS011;269;48.884;9.192;2022-11-11T07:08:40;12.60;;;11.35;;
568;SDS011;269;48.884;9.192;2022-11-11T07:11:08;12.98;;;11.73;;
568;SDS011;269;48.884;9.192;2022-11-11T07:13:36;15.48;;;12.35;;
568;SDS011;269;48.884;9.192;2022-11-11T07:16:04;14.38;;;12.80;;
568;SDS011;269;48.884;9.192;2022-11-11T07:18:31;14.55;;;13.18;;
568;SDS011;269;48.884;9.192;2022-11-11T07:21:00;18.67;;;14.50;;
568;SDS011;269;48.884;9.192;2022-11-11T07:23:27;14.70;;;12.98;;
568;SDS011;269;48.884;9.192;2022-11-11T07:25:54;14.20;;;12.80;;
568;SDS011;269;48.884;9.192;2022-11-11T07:28:23;14.55;;;12.98;;
568;SDS011;269;48.884;9.192;2022-11-11T07:30:50;14.27;;;12.80;;
568;SDS011;269;48.884;9.192;2022-11-11T07:33:17;14.98;;;13.27;;
568;SDS011;269;48.884;9.192;2022-11-11T07:35:44;14.63;;;13.18;;
568;SDS011;269;48.884;9.192;2022-11-11T07:38:13;15.63;;;12.68;;
568;SDS011;269;48.884;9.192;2022-11-11T07:40:40;13.95;;;12.63;;
568;SDS011;269;48.884;9.192;2022-11-11T07:43:08;13.85;;;12.45;;
568;SDS011;269;48.884;9.192;2022-11-11T07:45:35;13.60;;;12.20;;
568;SDS011;269;48.884;9.192;2022-11-11T07:48:03;12.18;;;10.98;;
568;SDS011;269;48.884;9.192;2022-11-11T07:50:36;12.73;;;11.45;;
568;SDS011;269;48.884;9.192;2022-11-11T07:53:03;12.07;;;11.07;;
568;SDS011;269;48.884;9.192;2022-11-11T07:55:32;11.93;;;10.70;;
568;SDS011;269;48.884;9.192;2022-11-11T07:58:00;10.45;;;9.63;;
568;SDS011;269;48.884;9.192;2022-11-11T08:00:28;11.32;;;10.23;;
568;SDS011;269;48.884;9.192;2022-11-11T08:02:55;12.48;;;11.18;;
568;SDS011;269;48.884;9.192;2022-11-11T08:05:23;11.25;;;10.15;;
568;SDS011;269;48.884;9.192;2022-11-11T08:07:50;9.25;;;8.45;;
568;SDS011;269;48.884;9.192;2022-11-11T08:10:17;9.63;;;8.68;;
568;SDS011;269;48.884;9.192;2022-11-11T08:12:50;10.13;;;9.18;;
568;SDS011;269;48.884;9.192;2022-11-11T08:15:37;8.25;;;7.65;;
568;SDS011;269;48.884;9.192;2022-11-11T08:18:04;8.75;;;8.05;;
568;SDS011;269;48.884;9.192;2022-11-11T08:20:32;9.18;;;8.48;;
568;SDS011;269;48.884;9.192;2022-11-11T08:22:59;7.80;;;7.20;;
568;SDS011;269;48.884;9.192;2022-11-11T08:25:29;8.05;;;7.45;;
568;SDS011;269;48.884;9.192;2022-11-11T08:27:58;8.45;;;7.65;;
568;SDS011;269;48.884;9.192;2022-11-11T08:30:26;8.20;;;7.50;;
568;SDS011;269;48.884;9.192;2022-11-11T08:32:55;8.95;;;8.13;;
568;SDS011;269;48.884;9.192;2022-11-11T08:35:23;8.48;;;7.68;;
568;SDS011;269;48.884;9.192;2022-11-11T08:37:51;8.65;;;6.95;;
568;SDS011;269;48.884;9.192;2022-11-11T08:40:19;7.35;;;6.65;;
568;SDS011;269;48.884;9.192;2022-11-11T08:42:47;8.55;;;7.07;;
568;SDS011;269;48.884;9.192;2022-11-11T08:45:16;7.65;;;6.95;;
568;SDS011;269;48.884;9.192;2022-11-11T08:47:43;7.72;;;6.43;;
568;SDS011;269;48.884;9.192;2022-11-11T08:50:11;7.60;;;6.95;;
568;SDS011;269;48.884;9.192;2022-11-11T08:52:44;8.27;;;7.55;;
568;SDS011;269;48.884;9.192;2022-11-11T08:55:12;8.32;;;7.25;;
568;SDS011;269;48.884;9.192;2022-11-11T08:57:40;7.00;;;6.40;;
568;SDS011;269;48.884;9.192;2022-11-11T09:00:07;6.55;;;5.95;;
568;SDS011;269;48.884;9.192;2022-11-11T09:02:38;6.93;;;6.25;;
568;SDS011;269;48.884;9.192;2022-11-11T09:05:06;6.55;;;5.95;;
568;SDS011;269;48.884;9.192;2022-11-11T09:07:34;6.65;;;5.63;;
568;SDS011;269;48.884;9.192;2022-11-11T09:10:01;6.05;;;5.53;;
568;SDS011;269;48.884;9.192;2022-11-11T09:12:28;6.25;;;5.75;;
568;SDS011;269;48.884;9.192;2022-11-11T09:14:55;5.93;;;5.38;;
568;SDS011;269;48.884;9.192;2022-11-11T09:17:23;6.53;;;5.25;;
568;SDS011;269;48.884;9.192;2022-11-11T09:19:51;4.90;;;4.47;;
568;SDS011;269;48.884;9.192;2022-11-11T09:22:20;5.60;;;5.20;;
568;SDS011;269;48.884;9.192;2022-11-11T09:24:47;5.65;;;5.22;;
568;SDS011;269;48.884;9.192;2022-11-11T09:27:14;5.97;;;5.38;;
568;SDS011;269;48.884;9.192;2022-11-11T09:29:41;5.28;;;4.78;;
568;SDS011;269;48.884;9.192;2022-11-11T09:32:09;8.63;;;5.07;;
568;SDS011;269;48.884;9.192;2022-11-11T09:34:36;5.22;;;4.82;;
568;SDS011;269;48.884;9.192;2022-11-11T09:37:05;5.23;;;4.70;;
568;SDS011;269;48.884;9.192;2022-11-11T09:39:33;4.87;;;4.40;;
568;SDS011;269;48.884;9.192;2022-11-11T09:42:02;6.67;;;5.00;;
568;SDS011;269;48.884;9.192;2022-11-11T09:44:41;5.70;;;5.07;;
568;SDS011;269;48.884;9.192;2022-11-11T09:47:25;5.40;;;4.37;;
568;SDS011;269;48.884;9.192;2022-11-11T09:50:01;4.73;;;4.23;;
568;SDS011;269;48.884;9.192;2022-11-11T09:52:32;5.10;;;4.80;;
568;SDS011;269;48.884;9.192;2022-11-11T09:55:05;4.90;;;4.30;;
568;SDS011;269;48.884;9.192;2022-11-11T09:57:42;5.00;;;4.60;;
568;SDS011;269;48.884;9.192;2022-11-11T10:00:15;4.60;;;4.20;;
568;SDS011;269;48.884;9.192;2022-11-11T10:02:46;5.20;;;4.70;;
568;SDS011;269;48.884;9.192;2022-11-11T10:05:18;5.70;;;5.10;;
568;SDS011;269;48.884;9.192;2022-11-11T10:07:49;4.77;;;4.00;;
568;SDS011;269;48.884;9.192;2022-11-11T10:10:23;5.00;;;4.60;;
568;SDS011;269;48.884;9.192;2022-11-11T10:12:57;6.60;;;4.90;;
568;SDS011;269;48.884;9.192;2022-11-11T10:15:27;5.27;;;4.40;;
568;SDS011;269;48.884;9.192;2022-11-11T10:18:07;5.30;;;4.80;;
568;SDS011;269;48.884;9.192;2022-11-11T10:20:41;5.50;;;5.00;;
568;SDS011;269;48.884;9.192;2022-11-11T10:23:14;4.70;;;4.30;;
568;SDS011;269;48.884;9.192;2022-11-11T10:25:45;5.18;;;4.72;;
568;SDS011;269;48.884;9.192;2022-11-11T10:28:18;5.10;;;4.70;;
568;SDS011;269;48.884;9.192;2022-11-11T10:30:46;4.70;;;4.30;;
568;SDS011;269;48.884;9.192;2022-11-11T10:33:15;5.67;;;5.17;;
568;SDS011;269;48.884;9.192;2022-11-11T10:35:47;5.97;;;5.07;;
568;SDS011;269;48.884;9.192;2022-11-11T10:38:29;5.67;;;4.60;;
568;SDS011;269;48.884;9.192;2022-11-11T10:41:03;5.37;;;4.53;;
568;SDS011;269;48.884;9.192;2022-11-11T10:43:36;4.40;;;4.00;;
568;SDS011;269;48.884;9.192;2022-11-11T10:46:06;5.80;;;4.20;;
568;SDS011;269;48.884;9.192;2022-11-11T10:48:42;4.90;;;4.60;;
568;SDS011;269;48.884;9.192;2022-11-11T10:51:16;5.40;;;4.87;;
568;SDS011;269;48.884;9.192;2022-11-11T10:53:47;5.93;;;4.97;;
568;SDS011;269;48.884;9.192;2022-11-11T10:56:24;4.90;;;4.50;;
568;SDS011;269;48.884;9.192;2022-11-11T10:59:00;5.80;;;5.30;;
568;SDS011;269;48.884;9.192;2022-11-11T11:01:35;5.17;;;4.70;;
568;SDS011;269;48.884;9.192;2022-11-11T11:04:07;4.70;;;4.40;;
568;SDS011;269;48.884;9.192;2022-11-11T11:06:41;5.63;;;4.90;;
568;SDS011;269;48.884;9.192;2022-11-11T11:09:14;6.50;;;4.50;;
568;SDS011;269;48.884;9.192;2022-11-11T11:11:47;5.07;;;4.40;;
568;SDS011;269;48.884;9.192;2022-11-11T11:14:19;6.13;;;4.43;;
568;SDS011;269;48.884;9.192;2022-11-11T11:16:50;5.20;;;4.80;;
568;SDS011;269;48.884;9.192;2022-11-11T11:19:20;6.13;;;5.17;;
568;SDS011;269;48.884;9.192;2022-11-11T11:21:49;5.00;;;4.50;;
568;SDS011;269;48.884;9.192;2022-11-11T11:24:20;5.23;;;4.73;;
568;SDS011;269;48.884;9.192;2022-11-11T11:26:50;6.00;;;5.50;;
568;SDS011;269;48.884;9.192;2022-11-11T11:29:29;5.50;;;5.00;;
568;SDS011;269;48.884;9.192;2022-11-11T11:32:09;5.83;;;5.30;;
568;SDS011;269;48.884;9.192;2022-11-11T11:34:48;5.13;;;4.73;;
568;SDS011;269;48.884;9.192;2022-11-11T11:37:18;5.30;;;4.80;;
568;SDS011;269;48.884;9.192;2022-11-11T11:39:47;5.70;;;4.87;;
568;SDS011;269;48.884;9.192;2022-11-11T11:42:27;5.60;;;5.20;;
568;SDS011;269;48.884;9.192;2022-11-11T11:44:56;5.10;;;4.70;;
568;SDS011;269;48.884;9.192;2022-11-11T11:47:41;5.17;;;4.67;;
568;SDS011;269;48.884;9.192;2022-11-11T11:50:20;5.10;;;4.60;;
568;SDS011;269;48.884;9.192;2022-11-11T11:52:58;5.07;;;4.67;;
568;SDS011;269;48.884;9.192;2022-11-11T11:55:36;5.37;;;4.67;;
568;SDS011;269;48.884;9.192;2022-11-11T11:58:19;5.60;;;4.80;;
568;SDS011;269;48.884;9.192;2022-11-11T12:00:59;5.27;;;4.73;;
568;SDS011;269;48.884;9.192;2022-11-11T12:06:39;6.33;;;4.27;;
568;SDS011;269;48.884;9.192;2022-11-11T12:09:19;4.40;;;4.00;;
568;SDS011;269;48.884;9.192;2022-11-11T12:12:02;4.60;;;3.77;;
568;SDS011;269;48.884;9.192;2022-11-11T12:14:40;4.47;;;4.07;;
568;SDS011;269;48.884;9.192;2022-11-11T12:17:22;4.13;;;3.83;;
568;SDS011;269;48.884;9.192;2022-11-11T12:19:58;4.47;;;4.10;;
568;SDS011;269;48.884;9.192;2022-11-11T12:22:35;5.17;;;4.00;;
568;SDS011;269;48.884;9.192;2022-11-11T12:25:12;4.73;;;3.90;;
568;SDS011;269;48.884;9.192;2022-11-11T12:27:51;5.20;;;4.10;;
568;SDS011;269;48.884;9.192;2022-11-11T12:30:25;4.07;;;3.63;;
568;SDS011;269;48.884;9.192;2022-11-11T12:33:00;4.60;;;3.60;;
568;SDS011;269;48.884;9.192;2022-11-11T12:35:39;3.63;;;3.33;;
568;SDS011;269;48.884;9.192;2022-11-11T12:38:19;5.10;;;3.20;;
568;SDS011;269;48.884;9.192;2022-11-11T12:41:03;4.67;;;3.87;;
568;SDS011;269;48.884;9.192;2022-11-11T12:43:43;6.27;;;4.07;;
568;SDS011;269;48.884;9.192;2022-11-11T12:46:20;4.10;;;3.70;;
568;SDS011;269;48.884;9.192;2022-11-11T12:48:57;3.13;;;2.83;;
568;SDS011;269;48.884;9.192;2022-11-11T12:51:32;4.10;;;3.40;;
568;SDS011;269;48.884;9.192;2022-11-11T12:54:14;5.30;;;3.20;;
568;SDS011;269;48.884;9.192;2022-11-11T12:56:50;4.60;;;4.20;;
568;SDS011;269;48.884;9.192;2022-11-11T12:59:24;3.03;;;2.83;;
568;SDS011;269;48.884;9.192;2022-11-11T13:02:11;4.07;;;3.50;;
568;SDS011;269;48.884;9.192;2022-11-11T13:04:53;3.77;;;3.00;;
568;SDS011;269;48.884;9.192;2022-11-11T13:10:26;3.20;;;2.90;;
568;SDS011;269;48.884;9.192;2022-11-11T13:13:04;4.43;;;3.37;;
568;SDS011;269;48.884;9.192;2022-11-11T13:15:43;3.60;;;2.70;;
568;SDS011;269;48.884;9.192;2022-11-11T13:18:11;3.47;;;2.60;;
568;SDS011;269;48.884;9.192;2022-11-11T13:20:43;3.30;;;2.97;;
568;SDS011;269;48.884;9.192;2022-11-11T13:23:16;3.93;;;3.33;;
568;SDS011;269;48.884;9.192;2022-11-11T13:25:43;2.67;;;2.47;;
568;SDS011;269;48.884;9.192;2022-11-11T13:28:14;3.93;;;3.10;;
568;SDS011;269;48.884;9.192;2022-11-11T13:30:49;2.83;;;2.60;;
568;SDS011;269;48.884;9.192;2022-11-11T13:33:35;4.17;;;3.80;;
568;SDS011;269;48.884;9.192;2022-11-11T13:36:07;4.80;;;3.10;;
568;SDS011;269;48.884;9.192;2022-11-11T13:38:38;3.00;;;2.73;;
568;SDS011;269;48.884;9.192;2022-11-11T13:41:18;4.83;;;3.03;;
568;SDS011;269;48.884;9.192;2022-11-11T13:43:48;3.20;;;2.90;;
568;SDS011;269;48.884;9.192;2022-11-11T13:46:34;5.00;;;2.90;;
568;SDS011;269;48.884;9.192;2022-11-11T13:49:07;4.17;;;2.40;;
568;SDS011;269;48.884;9.192;2022-11-11T13:51:45;3.53;;;2.50;;
568;SDS011;269;48.884;9.192;2022-11-11T13:54:23;3.83;;;2.50;;
568;SDS011;269;48.884;9.192;2022-11-11T13:57:00;3.97;;;2.67;;
568;SDS011;269;48.884;9.192;2022-11-11T13:59:31;2.67;;;2.20;;
568;SDS011;269;48.884;9.192;2022-11-11T14:02:24;2.53;;;2.20;;
568;SDS011;269;48.884;9.192;2022-11-11T14:05:14;2.47;;;2.27;;
568;SDS011;269;48.884;9.192;2022-11-11T14:07:50;3.13;;;2.10;;
568;SDS011;269;48.884;9.192;2022-11-11T14:13:38;3.23;;;2.03;;
568;SDS011;269;48.884;9.192;2022-11-11T14:16:10;3.53;;;2.43;;
568;SDS011;269;48.884;9.192;2022-11-11T14:18:45;2.13;;;1.93;;
568;SDS011;269;48.884;9.192;2022-11-11T14:24:21;2.20;;;2.00;;
568;SDS011;269;48.884;9.192;2022-11-11T14:26:57;2.43;;;2.20;;
568;SDS011;269;48.884;9.192;2022-11-11T14:29:27;3.17;;;1.83;;
568;SDS011;269;48.884;9.192;2022-11-11T14:32:04;2.70;;;2.10;;
568;SDS011;269;48.884;9.192;2022-11-11T14:34:53;2.80;;;2.47;;
568;SDS011;269;48.884;9.192;2022-11-11T14:37:51;2.03;;;1.90;;
568;SDS011;269;48.884;9.192;2022-11-11T14:40:27;3.90;;;2.27;;
568;SDS011;269;48.884;9.192;2022-11-11T14:42:57;5.83;;;2.30;;
568;SDS011;269;48.884;9.192;2022-11-11T14:48:49;2.60;;;2.23;;
568;SDS011;269;48.884;9.192;2022-11-11T14:51:55;3.40;;;2.57;;
568;SDS011;269;48.884;9.192;2022-11-11T14:54:42;2.43;;;2.23;;
568;SDS011;269;48.884;9.192;2022-11-11T14:57:18;3.40;;;2.27;;
568;SDS011;269;48.884;9.192;2022-11-11T14:59:49;2.60;;;2.40;;
568;SDS011;269;48.884;9.192;2022-11-11T15:02:24;2.60;;;2.40;;
568;SDS011;269;48.884;9.192;2022-11-11T15:04:59;3.00;;;2.40;;
568;SDS011;269;48.884;9.192;2022-11-11T15:10:34;3.43;;;2.33;;
568;SDS011;269;48.884;9.192;2022-11-11T15:13:20;3.30;;;2.70;;
568;SDS011;269;48.884;9.192;2022-11-11T15:15:59;3.30;;;3.00;;
568;SDS011;269;48.884;9.192;2022-11-11T15:18:42;2.90;;;2.70;;
568;SDS011;269;48.884;9.192;2022-11-11T15:21:24;3.77;;;3.13;;
568;SDS011;269;48.884;9.192;2022-11-11T15:24:03;3.30;;;2.93;;
568;SDS011;269;48.884;9.192;2022-11-11T15:26:42;2.60;;;2.37;;
568;SDS011;269;48.884;9.192;2022-11-11T15:29:32;3.57;;;2.97;;
568;SDS011;269;48.884;9.192;2022-11-11T15:32:13;4.50;;;3.07;;
568;SDS011;269;48.884;9.192;2022-11-11T15:34:52;3.23;;;3.03;;
568;SDS011;269;48.884;9.192;2022-11-11T15:37:24;3.10;;;2.80;;
568;SDS011;269;48.884;9.192;2022-11-11T15:39:54;3.73;;;3.43;;
568;SDS011;269;48.884;9.192;2022-11-11T15:42:25;4.17;;;3.60;;
568;SDS011;269;48.884;9.192;2022-11-11T15:44:55;3.17;;;2.93;;
568;SDS011;269;48.884;9.192;2022-11-11T15:47:25;9.40;;;8.57;;
568;SDS011;269;48.884;9.192;2022-11-11T15:49:53;11.33;;;10.00;;
568;SDS011;269;48.884;9.192;2022-11-11T15:52:23;4.13;;;3.83;;
568;SDS011;269;48.884;9.192;2022-11-11T15:54:52;3.70;;;3.20;;
568;SDS011;269;48.884;9.192;2022-11-11T15:57:25;3.30;;;3.00;;
568;SDS011;269;48.884;9.192;2022-11-11T15:59:54;3.37;;;3.07;;
568;SDS011;269;48.884;9.192;2022-11-11T16:02:23;3.78;;;3.40;;
568;SDS011;269;48.884;9.192;2022-11-11T16:04:53;4.20;;;3.60;;
568;SDS011;269;48.884;9.192;2022-11-11T16:07:23;3.50;;;3.30;;
568;SDS011;269;48.884;9.192;2022-11-11T16:09:54;4.40;;;4.10;;
568;SDS011;269;48.884;9.192;2022-11-11T16:12:27;4.55;;;4.25;;
568;SDS011;269;48.884;9.192;2022-11-11T16:14:58;3.60;;;3.30;;
568;SDS011;269;48.884;9.192;2022-11-11T16:17:32;4.40;;;4.00;;
568;SDS011;269;48.884;9.192;2022-11-11T16:20:04;5.22;;;4.53;;
568;SDS011;269;48.884;9.192;2022-11-11T16:22:37;5.90;;;5.30;;